• Join FlightAware (Why Join?)
  • Login
  • US Flag 
09:56AM EDT


 

Airport Tracker/Info


-or-


 

Live Flight TrackerFlight Track Log ✈ N311AN ✈ 11-Nov-2013 ✈ KMTN - KRUQ

Flight Track Log - Related Links

Times and Time Zones

All times are in EST time to prevent confusion due to time zone crossing. See the N311AN flight status page for this flight to view local times or setup timezone preferences in your user account.

Time Position Orientation Groundspeed Altitude Reporting Facility
EST Latitude Longitude Course Direction KTS MPH feet Rate Location/Type
09:29PM 39.2833 -76.4000 270° West 106 122 1,400  Level Potomac TRACON
09:30PM 39.2833 -76.4500 270° West 105 121 2,500 840 Climbing Potomac TRACON
09:31PM 39.3000 -76.4833 303° West 113 130 3,200 840 Climbing Potomac TRACON
09:32PM 39.3000 -76.5167 270° West 127 146 4,200 960 Climbing Potomac TRACON
09:33PM 39.3167 -76.5500 303° West 115 132 5,100 900 Climbing Potomac TRACON
09:34PM 39.3167 -76.6000 270° West 108 124 6,100 840 Climbing Potomac TRACON
09:35PM 39.3000 -76.6333 237° Southwest 114 131 7,000 840 Climbing Potomac TRACON
09:36PM 39.3000 -76.6667 270° West 113 130 7,900 540 Climbing Potomac TRACON
09:37PM 39.2833 -76.7167 247° West 127 146 8,100 360 Climbing Potomac TRACON
09:38PM 39.2833 -76.7667 270° West 123 142 8,700 600 Climbing Potomac TRACON
09:39PM 39.2833 -76.8000 270° West 117 135 9,300 600 Climbing Potomac TRACON
09:40PM 39.2667 -76.8333 237° Southwest 112 129 10,000 360 Climbing Potomac TRACON
09:41PM 39.2833 -76.9000 288° West 127 146 10,100  Climbing Potomac TRACON
09:42PM 39.2833 -76.9333 270° West 137 158 10,000 180 Descending Potomac TRACON
09:43PM 39.2667 -76.9833 247° West 142 163 10,500 660 Climbing Potomac TRACON
09:44PM 39.2333 -77.0167 218° Southwest 123 142 11,400 780 Climbing Potomac TRACON
09:45PM 39.2167 -77.0500 237° Southwest 116 133 12,000 600 Climbing Potomac TRACON
09:46PM 39.2000 -77.0833 237° Southwest 123 142 12,700 720 Climbing Potomac TRACON
09:47PM 39.1833 -77.1333 247° West 122 140 13,600 660 Climbing Potomac TRACON
09:48PM 39.1667 -77.1667 237° Southwest 134 154 14,200 660 Climbing Potomac TRACON
09:49PM 39.1333 -77.1833 201° Southwest 125 144 15,100 840 Climbing Potomac TRACON
09:50PM 39.1000 -77.2167 218° Southwest 121 139 15,900 720 Climbing Potomac TRACON
09:52PM 39.0833 -77.2500 237° Southwest 115 132 16,700 480 Climbing Potomac TRACON
09:52PM 39.0833 -77.2833 270° West 126 145 16,900 60 Climbing Potomac TRACON
09:53PM 39.0667 -77.3333 247° West 148 170 16,900  Level Potomac TRACON
09:54PM 39.0167 -77.3333 180° South 167 192 17,000  Climbing Potomac TRACON
09:55PM 38.9833 -77.3500 201° Southwest 167 192 16,900 -120 Descending Potomac TRACON
09:56PM 38.9333 -77.3667 195° South 170 196 16,800  Descending Potomac TRACON
09:57PM 38.8833 -77.4000 207° Southwest 161 185 16,900 120 Climbing Potomac TRACON
09:58PM 38.8500 -77.4167 201° Southwest 160 184 17,100 300 Climbing Potomac TRACON
09:59PM 38.8000 -77.4333 195° South 153 176 17,600 360 Climbing Potomac TRACON
10:00PM 38.7667 -77.4500 201° Southwest 151 174 17,800 120 Climbing Potomac TRACON
10:01PM 38.7167 -77.4667 195° South 152 175 17,900  Climbing Potomac TRACON
10:02PM 38.6833 -77.4833 201° Southwest 166 191 17,900  Level Potomac TRACON
10:03PM 38.6333 -77.5000 195° South 167 192 17,900  Level Potomac TRACON
10:04PM 38.6083 -77.5100 197° South 165 190 18,000  Climbing Washington Center
10:05PM 38.5642 -77.5272 197° South 170 196 17,900 -60 Descending Washington Center
10:06PM 38.5181 -77.5447 197° South 165 190 17,900  Level Washington Center
10:07PM 38.4739 -77.5647 200° South 165 190 18,000  Climbing Washington Center
10:08PM 38.4278 -77.5822 197° South 165 190 17,900 -120 Descending Washington Center
10:09PM 38.3817 -77.6019 199° South 170 196 17,800  Descending Washington Center
10:10PM 38.3436 -77.6328 212° Southwest 170 196 17,900 60 Climbing Washington Center
10:11PM 38.3075 -77.6636 214° Southwest 165 190 18,000  Climbing Washington Center
10:12PM 38.2758 -77.6969 220° Southwest 160 184 18,000  Level Washington Center
10:13PM 38.2417 -77.7306 218° Southwest 160 184 18,000  Level Washington Center
10:14PM 38.2078 -77.7692 222° Southwest 160 184 18,000  Level Washington Center
10:15PM 38.1739 -77.8025 218° Southwest 160 184 18,000  Level Washington Center
10:16PM 38.1397 -77.8411 222° Southwest 160 184 18,000  Level Washington Center
10:17PM 38.1056 -77.8769 220° Southwest 160 184 18,000  Level Washington Center
10:18PM 38.0694 -77.9103 216° Southwest 160 184 18,000 -60 Level Washington Center
10:19PM 38.0375 -77.9486 223° Southwest 160 184 17,900 -60 Descending Washington Center
10:20PM 37.9994 -77.9792 212° Southwest 160 184 17,900  Level Washington Center
10:21PM 37.9653 -78.0150 220° Southwest 160 184 18,000  Climbing Washington Center
10:22PM 37.9333 -78.0508 222° Southwest 160 184 18,000  Level Washington Center
10:23PM 37.9011 -78.0867 221° Southwest 160 184 18,000  Level Washington Center
10:24PM 37.8692 -78.1225 222° Southwest 160 184 18,100 60 Climbing Washington Center
10:25PM 37.8372 -78.1581 221° Southwest 160 184 18,200  Climbing Washington Center
10:26PM 37.8072 -78.1939 223° Southwest 160 184 18,100 -120 Descending Washington Center
10:27PM 37.7731 -78.2322 222° Southwest 160 184 18,000 -60 Descending Washington Center
10:28PM 37.7367 -78.2728 221° Southwest 160 184 18,000  Level Washington Center
10:29PM 37.7025 -78.3058 217° Southwest 160 184 18,000  Level Washington Center
10:30PM 37.6703 -78.3439 223° Southwest 160 184 18,000  Level Washington Center
10:31PM 37.6361 -78.3822 222° Southwest 160 184 18,000  Level Washington Center
10:32PM 37.6061 -78.4125 219° Southwest 160 184 18,000  Level Washington Center
10:33PM 37.5719 -78.4506 221° Southwest 160 184 18,000  Level Washington Center
10:34PM 37.5378 -78.4858 219° Southwest 160 184 18,000 -60 Level Washington Center
10:35PM 37.5033 -78.5239 221° Southwest 160 184 17,900 -60 Descending Washington Center
10:36PM 37.4692 -78.5644 223° Southwest 160 184 17,900  Level Washington Center
10:37PM 37.4347 -78.6022 221° Southwest 160 184 17,900  Level Washington Center
10:38PM 37.4025 -78.6403 223° Southwest 160 184 17,900  Level Washington Center
10:39PM 37.3703 -78.6756 221° Southwest 160 184 18,000 60 Climbing Washington Center
10:40PM 37.3422 -78.7083 223° Southwest 160 184 18,100  Climbing Washington Center
10:41PM 37.3100 -78.7461 223° Southwest 165 190 18,000 -60 Descending Washington Center
10:42PM 37.2756 -78.7839 221° Southwest 165 190 18,000  Level Washington Center
10:43PM 37.2433 -78.8217 223° Southwest 165 190 18,000  Level Washington Center
10:44PM 37.2089 -78.8647 225° Southwest 165 190 18,100  Climbing Washington Center
10:45PM 37.1767 -78.8997 221° Southwest 170 196 18,100  Level Washington Center
10:46PM 37.1442 -78.9400 225° Southwest 170 196 18,100  Level Washington Center
10:47PM 37.1097 -78.9775 221° Southwest 170 196 18,100 -60 Level Washington Center
10:48PM 37.0772 -79.0153 223° Southwest 170 196 18,000 -60 Descending Washington Center
10:49PM 37.0472 -79.0503 223° Southwest 170 196 18,000  Level Washington Center
10:50PM 37.0106 -79.0850 217° Southwest 170 196 18,000 -60 Level Washington Center
10:51PM 36.9742 -79.1225 219° Southwest 170 196 17,900 -300 Descending Washington Center
10:52PM 36.9372 -79.1650 223° Southwest 170 196 17,400 -420 Descending Washington Center
10:53PM 36.8986 -79.2047 219° Southwest 170 196 17,100 -360 Descending Washington Center
10:54PM 36.8619 -79.2469 223° Southwest 175 201 16,700 -480 Descending Washington Center
10:55PM 36.8250 -79.2894 223° Southwest 175 201 16,200 -480 Descending Washington Center
10:56PM 36.7883 -79.3317 223° Southwest 175 201 15,800 -480 Descending Washington Center
10:57PM 36.7558 -79.3692 223° Southwest 175 201 15,300 -420 Descending Washington Center
10:58PM 36.7211 -79.4089 223° Southwest 170 196 15,000 -360 Descending Washington Center
10:59PM 36.6844 -79.4511 223° Southwest 170 196 14,600 -420 Descending Washington Center
11:00PM 36.6517 -79.4908 224° Southwest 170 196 14,200 -420 Descending Washington Center
11:02PM 36.5989 -79.5276 209° Southwest  Level FlightAware Approximate
11:09PM 36.3547 -79.7789 219° Southwest  Level FlightAware Approximate
11:10PM 36.3194 -79.8142 219° Southwest  Level FlightAware Approximate
11:11PM 36.2840 -79.8495 219° Southwest  Level FlightAware Approximate
11:12PM 36.2487 -79.8848 219° Southwest  Level FlightAware Approximate
11:13PM 36.2134 -79.9200 219° Southwest  Level FlightAware Approximate
11:14PM 36.1781 -79.9553 219° Southwest  Level FlightAware Approximate
11:15PM 36.1428 -79.9906 219° Southwest  Level FlightAware Approximate
11:16PM 36.1076 -80.0258 219° Southwest  Level FlightAware Approximate
11:17PM 36.0723 -80.0611 219° Southwest  Level FlightAware Approximate